Airfield :
LOGIN :

Register | Disclaimer

   EN    FR    IT 

 










Legend :    VFR   Marginal VFR   IFR   Intensive IFR   Very Intensive IFR
Visi :
Ceiling :
>= 8 km
>= 3000ft
5 to 8 km
1000 to 3000 ft
1500m to 5 km
500 to 1000 ft
800 to 1500m
200 to 500 ft
< 800m
< 200 ft
Symbols :   Thunderstorms  Fog  Heavy snow  Heavy precipitations  Wind > 20 kt
SIGMETs :     Misc.  Thunderstorms  Icing  Turbulence  Mountain Waves  Volcanic Ashes






- Airport Elevation : 1339 ft


ETHN - Niederstetten

CURRENT METAR :
  • 211720Z 07005KT 9999 20/11 Q1015 BLU+

EXPIRED METARs :
  • 211620Z 02003KT 9999 24/11 Q1015 BLU+
  • 211520Z 25002KT 9999 FEW053 24/10 Q1015 BLU+
  • 211500Z VRB03KT 9999 FEW053 24/10 Q1015 BLU+FCST CNL

TAF TAF ETHN
Valid from the 21 at 14:00 until the 21 at 23:00 UTC


211300Z 2114/2123 VRB03KT 9999 NSW SKC



MET'MAP, your aeronautical weather chart ! - Copyright ORBIFLY December 2007 - Disclaimer

ORBIFLY MET'MAP TEAM :

Programming & Development : Alexandra Zaïnal
Concept & original design : Baudouin d'Aumeries
Assistance for programming : Marc-Olivier Méhu
Technical & hardware support : Manuel Goepfert

Contact : metmap@orbifly.com




SOURCES & CREDITS :

   NOAA